Terminal Aerodrome Forecast
Issued by NWS

Current Version | Previous Version | Text Only | Print | Product List | Glossary On
Versions: 1 2 3 4 5 6 7 8 9 10 11 12 13 14 15 16 17 18 19 20 21 22 23 24 25 26 27 28 29 30 31 32 33 34 35
000
FTUS43 KLOT 291609 AAB
TAFMDW
TAF AMD
KMDW 291609Z 2916/3012 20012G19KT P6SM VCSH BKN035
      TEMPO 2916/2918 2SM SHRA SCT020 OVC035
     FM292000 21014G21KT P6SM VCTS BKN040CB
     FM292200 21014G21KT P6SM SCT045
     FM300600 23008KT P6SM VCSH BKN045
     FM301000 31008KT 4SM SHRA VCTS SCT020 OVC040CB=

USA.gov is the U.S. government's official web portal to all federal, state and local government web resources and services.